Muenster, Texas
Current Conditions -  °F | °C
As of 4:35 AM on Thursday 23 Oct 2014 (Local Time) from KGLE Reporting Station
Overcast Overcast  
Wind Chill: 62°   Ceiling: 7000
Heat Index: 62°   Visibility: 10mi
Dew Point: 56°   Wind: 7mph
Humidity: 82%   Direction: 130°SE
Pressure: 30.14"   Gusts: NA
Location:  33.65°N, 97.38°W
Report Text: KGLE 230935Z AUTO 13006KT 10SM OVC070 17/13 A3014 RMK AO2 T01650134
Loading
Personal Weather Stations






























Interactive Weather Map
Tropical Storm Tracking
New forecast layout! Learn more

10-Day Weather Forecast

Advertisements
Track Severe Weather on mobile